Map

Track Data

SID SEASON NUMBER BASIN SUBBASIN NAME ISO_TIME NATURE LAT LON WMO_WIND WMO_PRES WMO_AGENCY TRACK_TYPE DIST2LAND LANDFALL IFLAG USA_AGENCY USA_ATCF_ID USA_LAT USA_LON USA_RECORD USA_STATUS USA_WIND USA_PRES USA_SSHS USA_R34_NE USA_R34_SE USA_R34_SW USA_R34_NW USA_R50_NE USA_R50_SE USA_R50_SW USA_R50_NW USA_R64_NE USA_R64_SE USA_R64_SW USA_R64_NW USA_POCI USA_ROCI USA_RMW USA_EYE TOKYO_LAT TOKYO_LON TOKYO_GRADE TOKYO_WIND TOKYO_PRES TOKYO_R50_DIR TOKYO_R50_LONG TOKYO_R50_SHORT TOKYO_R30_DIR TOKYO_R30_LONG TOKYO_R30_SHORT TOKYO_LAND CMA_LAT CMA_LON CMA_CAT CMA_WIND CMA_PRES HKO_LAT HKO_LON HKO_CAT HKO_WIND HKO_PRES NEWDELHI_LAT NEWDELHI_LON NEWDELHI_GRADE NEWDELHI_WIND NEWDELHI_PRES NEWDELHI_CI NEWDELHI_DP NEWDELHI_POCI REUNION_LAT REUNION_LON REUNION_TYPE REUNION_WIND REUNION_PRES REUNION_TNUM REUNION_CI REUNION_RMW REUNION_R34_NE REUNION_R34_SE REUNION_R34_SW REUNION_R34_NW REUNION_R50_NE REUNION_R50_SE REUNION_R50_SW REUNION_R50_NW REUNION_R64_NE REUNION_R64_SE REUNION_R64_SW REUNION_R64_NW BOM_LAT BOM_LON BOM_TYPE BOM_WIND BOM_PRES BOM_TNUM BOM_CI BOM_RMW BOM_R34_NE BOM_R34_SE BOM_R34_SW BOM_R34_NW BOM_R50_NE BOM_R50_SE BOM_R50_SW BOM_R50_NW BOM_R64_NE BOM_R64_SE BOM_R64_SW BOM_R64_NW BOM_ROCI BOM_POCI BOM_EYE BOM_POS_METHOD BOM_PRES_METHOD NADI_LAT NADI_LON NADI_CAT NADI_WIND NADI_PRES WELLINGTON_LAT WELLINGTON_LON WELLINGTON_WIND WELLINGTON_PRES DS824_LAT DS824_LON DS824_STAGE DS824_WIND DS824_PRES TD9636_LAT TD9636_LON TD9636_STAGE TD9636_WIND TD9636_PRES TD9635_LAT TD9635_LON TD9635_WIND TD9635_PRES TD9635_ROCI NEUMANN_LAT NEUMANN_LON NEUMANN_CLASS NEUMANN_WIND NEUMANN_PRES MLC_LAT MLC_LON MLC_CLASS MLC_WIND MLC_PRES USA_GUST BOM_GUST BOM_GUST_PER REUNION_GUST REUNION_GUST_PER USA_SEAHGT USA_SEARAD_NE USA_SEARAD_SE USA_SEARAD_SW USA_SEARAD_NW STORM_SPEED STORM_DIR
1970224N19339 1970 84 NA NA NOT_NAMED 1970-08-11 12:00:00 TS 19.0000 -21.0000 20 hurdat_atl main 454 454 O_____________ hurdat_atl AL071970 19.0000 -21.0000 TD 20 -1 8 270
1970224N19339 1970 84 NA NA NOT_NAMED 1970-08-11 15:00:00 TS 18.9999 -21.4450 main 492 492 P_____________ AL071970 18.9999 -21.4450 TD 22 -1 9 270
1970224N19339 1970 84 NA NA NOT_NAMED 1970-08-11 18:00:00 TS 19.0000 -22.0000 25 hurdat_atl main 550 550 O_____________ hurdat_atl AL071970 19.0000 -22.0000 TD 25 -1 12 270
1970224N19339 1970 84 NA NA NOT_NAMED 1970-08-11 21:00:00 TS 19.0003 -22.7275 main 619 619 P_____________ AL071970 19.0003 -22.7275 TD 25 -1 14 270
1970224N19339 1970 84 NA NA NOT_NAMED 1970-08-12 00:00:00 TS 19.0000 -23.5000 25 hurdat_atl main 698 698 O_____________ hurdat_atl AL071970 19.0000 -23.5000 TD 25 -1 14 270
1970224N19339 1970 84 NA NA NOT_NAMED 1970-08-12 03:00:00 TS 18.9997 -24.1725 main 769 769 P_____________ AL071970 18.9997 -24.1725 TD 25 -1 12 270
1970224N19339 1970 84 NA NA NOT_NAMED 1970-08-12 06:00:00 TS 19.0000 -24.8000 25 hurdat_atl main 829 829 O_____________ hurdat_atl AL071970 19.0000 -24.8000 TD 25 -1 11 270
1970224N19339 1970 84 NA NA NOT_NAMED 1970-08-12 09:00:00 TS 18.9995 -25.3850 main 890 890 P_____________ AL071970 18.9995 -25.3850 TD 27 -1 11 270
1970224N19339 1970 84 NA NA NOT_NAMED 1970-08-12 12:00:00 TS 19.0000 -26.0000 30 hurdat_atl main 951 951 O_____________ hurdat_atl AL071970 19.0000 -26.0000 TD 30 -1 13 270
1970224N19339 1970 84 NA NA NOT_NAMED 1970-08-12 15:00:00 TS 19.0000 -26.7275 main 1023 1023 P_____________ AL071970 19.0000 -26.7275 TD 30 -1 14 270
1970224N19339 1970 84 NA NA NOT_NAMED 1970-08-12 18:00:00 TS 19.0000 -27.5000 30 hurdat_atl main 1105 1105 O_____________ hurdat_atl AL071970 19.0000 -27.5000 TD 30 -1 14 270
1970224N19339 1970 84 NA NA NOT_NAMED 1970-08-12 21:00:00 TS 18.9997 -28.2500 main 1177 1187 P_____________ AL071970 18.9997 -28.2500 TD 30 -1 14 270
1970224N19339 1970 84 NA NA NOT_NAMED 1970-08-13 00:00:00 TS 19.0000 -29.0000 30 hurdat_atl main 1259 1259 O_____________ hurdat_atl AL071970 19.0000 -29.0000 TD 30 -1 14 270
1970224N19339 1970 84 NA NA NOT_NAMED 1970-08-13 03:00:00 TS 18.9997 -29.7500 main 1332 1332 P_____________ AL071970 18.9997 -29.7500 TD 30 -1 14 270
1970224N19339 1970 84 NA NA NOT_NAMED 1970-08-13 06:00:00 TS 19.0000 -30.5000 30 hurdat_atl main 1414 1414 O_____________ hurdat_atl AL071970 19.0000 -30.5000 TD 30 -1 14 271
1970224N19339 1970 84 NA NA NOT_NAMED 1970-08-13 09:00:00 TS 19.0147 -31.2498 main 1487 1487 P_____________ AL071970 19.0147 -31.2498 TD 30 -1 14 270
1970224N19339 1970 84 NA NA NOT_NAMED 1970-08-13 12:00:00 TS 19.0000 -32.0000 30 hurdat_atl main 1570 1570 O_____________ hurdat_atl AL071970 19.0000 -32.0000 TD 30 -1 14 266
1970224N19339 1970 84 NA NA NOT_NAMED 1970-08-13 15:00:00 TS 18.9222 -32.7500 main 1654 1654 P_____________ AL071970 18.9222 -32.7500 TD 30 -1 14 262
1970224N19339 1970 84 NA NA NOT_NAMED 1970-08-13 18:00:00 TS 18.8000 -33.5000 30 hurdat_atl main 1729 1729 O_____________ hurdat_atl AL071970 18.8000 -33.5000 TD 30 -1 14 259
1970224N19339 1970 84 NA NA NOT_NAMED 1970-08-13 21:00:00 TS 18.6572 -34.2500 main 1803 1803 P_____________ AL071970 18.6572 -34.2500 TD 30 -1 15 258
1970224N19339 1970 84 NA NA NOT_NAMED 1970-08-14 00:00:00 TS 18.5000 -35.0000 30 hurdat_atl main 1890 1890 O_____________ hurdat_atl AL071970 18.5000 -35.0000 TD 30 -1 15 258
1970224N19339 1970 84 NA NA NOT_NAMED 1970-08-14 03:00:00 TS 18.3422 -35.7500 main 1967 1967 P_____________ AL071970 18.3422 -35.7500 TD 30 -1 15 258
1970224N19339 1970 84 NA NA NOT_NAMED 1970-08-14 06:00:00 TS 18.2000 -36.5000 30 hurdat_atl main 2052 2052 O_____________ hurdat_atl AL071970 18.2000 -36.5000 TD 30 -1 15 259
1970224N19339 1970 84 NA NA NOT_NAMED 1970-08-14 09:00:00 TS 18.0772 -37.2500 main 2127 2109 P_____________ AL071970 18.0772 -37.2500 TD 30 -1 14 262
1970224N19339 1970 84 NA NA NOT_NAMED 1970-08-14 12:00:00 TS 18.0000 -38.0000 30 hurdat_atl main 2109 2058 O_____________ hurdat_atl AL071970 18.0000 -38.0000 TD 30 -1 14 266
1970224N19339 1970 84 NA NA NOT_NAMED 1970-08-14 15:00:00 TS 17.9847 -38.7498 main 2058 2001 P_____________ AL071970 17.9847 -38.7498 TD 30 -1 14 270
1970224N19339 1970 84 NA NA NOT_NAMED 1970-08-14 18:00:00 TS 18.0000 -39.5000 30 hurdat_atl main 2001 1953 O_____________ hurdat_atl AL071970 18.0000 -39.5000 TD 30 -1 14 271
1970224N19339 1970 84 NA NA NOT_NAMED 1970-08-14 21:00:00 TS 17.9997 -40.2500 main 1953 1900 P_____________ AL071970 17.9997 -40.2500 TD 30 -1 14 270
1970224N19339 1970 84 NA NA NOT_NAMED 1970-08-15 00:00:00 TS 18.0000 -41.0000 30 hurdat_atl main 1900 1856 O_____________ hurdat_atl AL071970 18.0000 -41.0000 TD 30 -1 14 270
1970224N19339 1970 84 NA NA NOT_NAMED 1970-08-15 03:00:00 TS 17.9997 -41.7500 main 1856 1805 P_____________ AL071970 17.9997 -41.7500 TD 30 -1 14 270
1970224N19339 1970 84 NA NA NOT_NAMED 1970-08-15 06:00:00 TS 18.0000 -42.5000 30 hurdat_atl main 1805 1760 O_____________ hurdat_atl AL071970 18.0000 -42.5000 TD 30 -1 14 270
1970224N19339 1970 84 NA NA NOT_NAMED 1970-08-15 09:00:00 TS 17.9992 -43.2125 main 1760 1711 P_____________ AL071970 17.9992 -43.2125 TD 30 -1 14 270
1970224N19339 1970 84 NA NA NOT_NAMED 1970-08-15 12:00:00 TS 18.0000 -44.0000 30 hurdat_atl main 1711 1660 O_____________ hurdat_atl AL071970 18.0000 -44.0000 TD 30 -1 17 270
1970224N19339 1970 84 NA NA NOT_NAMED 1970-08-15 15:00:00 TS 18.0000 -44.9625 main 1654 1607 P_____________ AL071970 18.0000 -44.9625 TD 30 -1 19 270
1970224N19339 1970 84 NA NA NOT_NAMED 1970-08-15 18:00:00 TS 18.0000 -46.0000 30 hurdat_atl main 1602 1560 O_____________ hurdat_atl AL071970 18.0000 -46.0000 TD 30 -1 19 270
1970224N19339 1970 84 NA NA NOT_NAMED 1970-08-15 21:00:00 TS 17.9995 -47.0000 main 1555 1517 P_____________ AL071970 17.9995 -47.0000 TD 27 -1 19 270
1970224N19339 1970 84 NA NA NOT_NAMED 1970-08-16 00:00:00 TS 18.0000 -48.0000 25 hurdat_atl main 1513 1472 O_____________ hurdat_atl AL071970 18.0000 -48.0000 TD 25 -1 19 270
1970224N19339 1970 84 NA NA NOT_NAMED 1970-08-16 03:00:00 TS 17.9995 -49.0000 main 1467 1433 P_____________ AL071970 17.9995 -49.0000 TD 25 -1 19 270
1970224N19339 1970 84 NA NA NOT_NAMED 1970-08-16 06:00:00 TS 18.0000 -50.0000 25 hurdat_atl main 1429 1351 O_____________ hurdat_atl AL071970 18.0000 -50.0000 TD 25 -1 19 269
1970224N19339 1970 84 NA NA NOT_NAMED 1970-08-16 09:00:00 TS 17.9625 -51.0380 main 1351 1267 P_____________ AL071970 17.9625 -51.0380 TD 25 -1 19 270
1970224N19339 1970 84 NA NA NOT_NAMED 1970-08-16 12:00:00 TS 18.0000 -52.0000 25 hurdat_atl main 1267 1225 O_____________ hurdat_atl AL071970 18.0000 -52.0000 TD 25 -1 17 279
1970224N19339 1970 84 NA NA NOT_NAMED 1970-08-16 15:00:00 TS 18.2117 -52.7873 main 1218 1188 P_____________ AL071970 18.2117 -52.7873 TD 25 -1 15 289
1970224N19339 1970 84 NA NA NOT_NAMED 1970-08-16 18:00:00 TS 18.5000 -53.5000 25 hurdat_atl main 1188 1155 O_____________ hurdat_atl AL071970 18.5000 -53.5000 TD 25 -1 15 291
1970224N19339 1970 84 NA NA NOT_NAMED 1970-08-16 21:00:00 TS 18.7497 -54.2502 main 1149 1118 P_____________ AL071970 18.7497 -54.2502 TD 25 -1 15 289
1970224N19339 1970 84 NA NA NOT_NAMED 1970-08-17 00:00:00 TS 19.0000 -55.0000 25 hurdat_atl main 1118 1045 O_____________ hurdat_atl AL071970 19.0000 -55.0000 TD 25 -1 15 289
1970224N19339 1970 84 NA NA NOT_NAMED 1970-08-17 03:00:00 TS 19.2497 -55.7502 main 1035 964 P_____________ AL071970 19.2497 -55.7502 TD 25 -1 15 289
1970224N19339 1970 84 NA NA NOT_NAMED 1970-08-17 06:00:00 TS 19.5000 -56.5000 25 hurdat_atl main 964 894 O_____________ hurdat_atl AL071970 19.5000 -56.5000 TD 25 -1 15 289
1970224N19339 1970 84 NA NA NOT_NAMED 1970-08-17 09:00:00 TS 19.7497 -57.2502 main 884 817 P_____________ AL071970 19.7497 -57.2502 TD 25 -1 15 290
1970224N19339 1970 84 NA NA NOT_NAMED 1970-08-17 12:00:00 TS 20.0000 -58.0000 25 hurdat_atl main 817 751 O_____________ hurdat_atl AL071970 20.0000 -58.0000 TD 25 -1 15 290
1970224N19339 1970 84 NA NA NOT_NAMED 1970-08-17 15:00:00 TS 20.2497 -58.7502 main 741 681 P_____________ AL071970 20.2497 -58.7502 TD 25 -1 15 290
1970224N19339 1970 84 NA NA NOT_NAMED 1970-08-17 18:00:00 TS 20.5000 -59.5000 25 hurdat_atl main 681 621 O_____________ hurdat_atl AL071970 20.5000 -59.5000 TD 25 -1 15 290
1970224N19339 1970 84 NA NA NOT_NAMED 1970-08-17 21:00:00 TS 20.7497 -60.2502 main 611 562 P_____________ AL071970 20.7497 -60.2502 TD 22 -1 15 290
1970224N19339 1970 84 NA NA NOT_NAMED 1970-08-18 00:00:00 TS 21.0000 -61.0000 20 hurdat_atl main 562 514 O_____________ hurdat_atl AL071970 21.0000 -61.0000 TD 20 -1 15 290
1970224N19339 1970 84 NA NA NOT_NAMED 1970-08-18 03:00:00 TS 21.2497 -61.7503 main 506 474 P_____________ AL071970 21.2497 -61.7503 TD 20 -1 15 290
1970224N19339 1970 84 NA NA NOT_NAMED 1970-08-18 06:00:00 TS 21.5000 -62.5000 20 hurdat_atl main 474 446 O_____________ hurdat_atl AL071970 21.5000 -62.5000 TD 20 -1 15 290
1970224N19339 1970 84 NA NA NOT_NAMED 1970-08-18 09:00:00 TS 21.7507 -63.2495 main 455 434 P_____________ AL071970 21.7507 -63.2495 TD 20 -1 15 290
1970224N19339 1970 84 NA NA NOT_NAMED 1970-08-18 12:00:00 TS 22.0000 -64.0000 20 hurdat_atl main 435 O_____________ hurdat_atl AL071970 22.0000 -64.0000 TD 20 -1 15 290

About IBTrACS Database

This database is a web-friendly format of International Best Track Archive for Climate Stewardship (IBTrACS), a global best track data archive curated by NOAA dating back to 1842.

Updated: 2021-12-06